Station info - map view · info · telemetry · weather · raw · status · beacons · messages · bulletins · browse · moving · my account
Callsign, ship name or locator: Clear       
It is possible to search using wildcards (*?) after a prefix. Example: OH*
APRS station JE6CIR-9 - show graphs
Map loading...
Comment: BlueLight Levorg EchoLink ALL-Kyusyu
Mic-E message: In service
Location: 33°35.35' N 130°29.10' E - locator PM53FO81EJ - show map - static map
4.0 miles East bearing 107° from Fukuoka-shi, Fukuoka, Japan [?]
9.3 miles South bearing 161° from Shingū, Fukuoka, Japan
10.0 miles South bearing 174° from Koga, Fukuoka, Japan
26.2 miles Southwest bearing 230° from Kitakyūshū, Fukuoka, Japan
Last position: 2020-10-08 04:30:02 CDT (21d 7h40m ago)
2020-10-08 18:30:02 JST local time at Fukuoka-shi, Japan [?]
Altitude: 43 ft
Course: 224°
Speed: 12 MPH
Device: Kenwood: TM-D710 (rig)
Last path: JE6CIR-9>S3SUS5 via WIDE1-1,WIDE2-1,qAR,JG6NQR-10 (good)
Positions stored: 198123
Last heard a station directly: 2020-08-14 19:31:32 CDT (75d 16h38m ago)
Stations near current position of JE6CIR-9 - show more
callsign distance last heard - CDT      callsign distance last heard - CDT
JA6YSK451.1 yards 189°2020-10-22 06:02:34 JR6HKE-C1.1 miles 68°2020-10-20 18:25:23
JO6VMT-51.4 miles 186°2020-10-26 16:42:18 JO6VMT1.4 miles 186°2020-10-05 06:21:28
JE6RDN-91.6 miles 166°2020-10-14 07:31:06 JA6UFB-131.8 miles 136°2020-10-29 10:15:43
JP3MYJ-71.8 miles 0°2020-10-28 03:54:11 JA6UFB-91.8 miles 136°2020-10-27 02:36:15
JA6UFB-101.8 miles 136°2020-10-29 10:57:44 JF6ZHE-41.9 miles 349°2020-10-29 11:57:49
JH6BVA-91.9 miles 180°2020-10-24 02:43:08 JG6YLH-101.9 miles 168°2020-10-28 08:36:52
JR6HKE-91.9 miles 168°2020-10-28 21:03:16 JA6/FO0742.1 miles 162°2020-10-26 23:14:45
JG6DMH-92.3 miles 288°2020-10-27 16:13:50 JP6YHS-I2.8 miles 63°2020-10-29 12:09:53
JI6QOV-13.3 miles 117°2020-10-29 11:41:25 JI6QOV-133.3 miles 117°2020-10-29 10:50:16
JI6QOV-123.3 miles 118°2020-10-29 00:36:29 JA6IJW-93.4 miles 210°2020-10-29 05:43:39
Stations which heard JE6CIR-9 directly on radio –
callsign pkts first heard - CDT last heard longest (tx => rx) longest at - CDT
JG6YCB-3 23 2020-10-08 00:50:09 2020-10-08 03:55:51 PM53HU > PM53KL 30.2 miles 148° 2020-10-08 00:50:09
JG6YDA-3 26 2020-10-08 00:48:12 2020-10-08 04:25:12 PM53JU > PM53HN 24.8 miles 209° 2020-10-08 02:06:40
JG6NQR-10 4 2020-10-08 04:17:52 2020-10-08 04:30:02 PM53FO > PM53FQ 6.7 miles 339° 2020-10-08 04:30:02
JA4FHV-10 1 2020-10-08 03:22:00 2020-10-08 03:22:00 PM53JU > PM53LX 11.2 miles 42° 2020-10-08 03:22:00
JF6YFU-3 1 2020-10-08 03:16:08 2020-10-08 03:16:08 PM53JU > PM53TO 49.8 miles 113° 2020-10-08 03:16:08
JI6QOV-1 7 2020-10-08 04:04:59 2020-10-08 04:23:52 PM53GP > PM53GN 5.8 miles 168° 2020-10-08 04:04:59
JI6FPP-10 4 2020-10-08 04:13:07 2020-10-08 04:27:18 PM53GP > PM53GK 12.5 miles 169° 2020-10-08 04:13:07
JG6YCL-4 3 2020-10-08 00:28:32 2020-10-08 00:30:39 PM53FR > PM53GT 5.7 miles 49° 2020-10-08 00:28:32
JG6IQA-1 1 2020-10-08 04:03:48 2020-10-08 04:03:48 PM53GP > PM53CN 18.2 miles 250° 2020-10-08 04:03:48
JF6YCQ-1 1 2020-10-08 03:16:50 2020-10-08 03:16:50 PM53JU > PM53KU 3.2 miles 89° 2020-10-08 03:16:50
JE6ZIY-3 31 2020-10-08 00:46:30 2020-10-08 03:55:27 PM53GQ > PM53JV 19.2 miles 41° 2020-10-08 03:55:27
JR6PUE-10 2 2020-10-08 00:34:35 2020-10-08 00:34:59 PM53GS > PM53IU 11.5 miles 65° 2020-10-08 00:34:35
JG6YDA-1 1 2020-10-08 00:24:31 2020-10-08 00:24:31 PM53FR > PM53HN 13.6 miles 152° 2020-10-08 00:24:31
JG6YLH-10 1 2020-10-08 00:25:25 2020-10-08 00:25:25 PM53FR > PM53FN 11.8 miles 176° 2020-10-08 00:25:25
JG6YMC-10 2 2020-10-08 00:22:19 2020-10-08 00:23:39 PM53FR > PM53HR 8.9 miles 86° 2020-10-08 00:22:19
JG6YCL-3 35 2020-10-08 00:36:31 2020-10-08 03:52:56 PM53JU > PM53GT 12.3 miles 255° 2020-10-08 03:23:08
JF6YVG-1 1 2020-10-08 04:29:40 2020-10-08 04:29:40 PM53FO > PM53GM 4.3 miles 168° 2020-10-08 04:29:40

Only position packets which were originated by the station are shown here. The range statistics show some extra long hops, because some digipeaters do not correctly add themselves to the digipeater path. Please check the raw packets.
About this site
This page shows real-time information collected from the Automatic Position Reporting System Internet network (APRS-IS). APRS is used by amateur (ham) radio operators to transmit real-time position information, weather data, telemetry and messages over the radio. A vehicle equipped with a GPS receiver, a VHF transmitter or HF transceiver and a small computer device called a tracker transmits it's location, speed and course in a small data packet, which is then received by a nearby iGate receiving site which forwards the packet on the Internet. Systems connected to the Internet can send information on the APRS-IS without a radio transmitter, or collect and display information transmitted anywhere in the world.
User guide · FAQ · Blog · Discussion group · Linking to aprs.fi · AIS sites · Service status · Database statistics · Advertising on aprs.fi · Technical details · API · Change log · Planned changes · Credits and thanks · Terms Of Service · iPhone/iPad APRS